createdAt,value
2023-04-25T00:00:31.510Z,99.10
2023-04-25T00:03:00.417Z,99.90
2023-04-25T00:05:28.333Z,98.80
2023-04-25T00:12:50.910Z,99.90
2023-04-25T00:20:14.387Z,98.80
2023-04-25T00:22:41.544Z,99.90
2023-04-25T00:25:09.083Z,99.20
2023-04-25T00:32:31.711Z,99.90
2023-04-25T00:34:59.148Z,99.80
2023-04-25T00:37:26.596Z,99.20
2023-04-25T00:42:23.329Z,99.90
2023-04-25T00:44:51.187Z,99.90
2023-04-25T00:47:18.885Z,99.90
2023-04-25T00:52:14.036Z,99.40
2023-04-25T00:57:09.082Z,99.60
2023-04-25T00:59:38.578Z,99.90
2023-04-25T01:02:06.579Z,99.80
2023-04-25T01:07:03.855Z,99.90
2023-04-25T01:09:33.045Z,99.90
2023-04-25T01:12:01.159Z,99.90
2023-04-25T01:16:55.969Z,99.80
2023-04-25T01:21:52.611Z,99.90
2023-04-25T01:24:20.218Z,99.90
2023-04-25T01:26:51.361Z,99.90
2023-04-25T01:29:26.370Z,99.90
2023-04-25T01:31:54.590Z,99.90
2023-04-25T01:34:22.560Z,99.90
2023-04-25T01:36:51.861Z,99.90
2023-04-25T01:39:20.001Z,99.90
2023-04-25T01:41:48.843Z,99.90
2023-04-25T01:44:16.804Z,99.90
2023-04-25T01:49:12.741Z,99.90
2023-04-25T01:51:41.587Z,99.90
2023-04-25T01:54:09.635Z,99.90
2023-04-25T01:56:39.266Z,99.90
2023-04-25T02:11:49.282Z,99.90
2023-04-25T02:19:54.591Z,99.90
2023-04-25T02:22:21.748Z,99.90
2023-04-25T02:24:48.853Z,99.90
2023-04-25T02:27:16.465Z,99.90
2023-04-25T02:32:11.971Z,99.90
2023-04-25T02:34:39.067Z,99.90
2023-04-25T02:37:06.149Z,99.90
2023-04-25T02:39:33.224Z,99.90
2023-04-25T02:42:00.320Z,99.90
2023-04-25T02:44:30.361Z,99.90
2023-04-25T02:46:57.511Z,99.90
2023-04-25T02:49:24.725Z,99.90
2023-04-25T02:51:53.254Z,99.90
2023-04-25T02:56:49.151Z,99.90
2023-04-25T02:59:21.722Z,99.90
2023-04-25T03:04:16.374Z,99.90
2023-04-25T03:06:43.756Z,99.90
2023-04-25T03:11:40.100Z,99.90
2023-04-25T03:19:03.706Z,99.90
2023-04-25T03:21:35.444Z,99.90
2023-04-25T03:24:05.472Z,99.90
2023-04-25T03:26:32.631Z,99.90
2023-04-25T03:29:00.601Z,99.90
2023-04-25T03:31:28.471Z,99.90
2023-04-25T03:33:55.625Z,99.90
2023-04-25T03:36:24.397Z,99.90
2023-04-25T03:38:51.638Z,99.60
2023-04-25T03:41:21.177Z,99.00
2023-04-25T03:43:53.512Z,99.90
2023-04-25T03:46:21.248Z,99.60
2023-04-25T03:48:49.277Z,99.50
2023-04-25T03:51:22.360Z,99.50
2023-04-25T03:53:51.166Z,99.70
2023-04-25T03:56:37.224Z,99.70
2023-04-25T03:59:15.861Z,99.00
2023-04-25T04:01:42.990Z,99.50
2023-04-25T04:04:10.373Z,99.10
2023-04-25T04:06:37.680Z,99.10
2023-04-25T04:09:13.434Z,98.60
2023-04-25T04:11:43.067Z,98.30
2023-04-25T04:14:11.463Z,98.60
2023-04-25T04:16:43.259Z,98.30
2023-04-25T04:19:10.412Z,98.50
2023-04-25T04:21:39.014Z,98.00
2023-04-25T04:24:06.736Z,98.60
2023-04-25T04:26:46.017Z,98.60
2023-04-25T04:29:29.967Z,98.30
2023-04-25T04:32:12.162Z,98.20
2023-04-25T04:34:40.740Z,98.40
2023-04-25T04:37:08.438Z,97.70
2023-04-25T04:39:37.356Z,97.90
2023-04-25T04:42:14.629Z,97.50
2023-04-25T04:45:04.096Z,97.50
2023-04-25T04:48:03.036Z,97.50
2023-04-25T04:50:53.369Z,97.60
2023-04-25T04:53:46.309Z,98.10
2023-04-25T04:56:30.460Z,97.70
2023-04-25T04:59:12.903Z,97.90
2023-04-25T05:01:58.514Z,97.30
2023-04-25T05:04:52.859Z,98.10
2023-04-25T05:07:38.637Z,97.90
2023-04-25T05:10:25.590Z,97.80
2023-04-25T05:13:11.853Z,97.90
2023-04-25T05:15:38.966Z,97.20
2023-04-25T05:18:26.370Z,97.70
2023-04-25T05:21:10.648Z,97.70
2023-04-25T05:23:47.244Z,96.80
2023-04-25T05:26:38.834Z,96.60
2023-04-25T05:29:26.168Z,96.60
2023-04-25T05:32:04.152Z,96.80
2023-04-25T05:34:31.318Z,96.50
2023-04-25T05:37:02.116Z,95.50
2023-04-25T05:39:30.678Z,96.20
2023-04-25T05:42:27.426Z,95.90
2023-04-25T05:45:09.036Z,95.60
2023-04-25T05:47:46.490Z,95.80
2023-04-25T05:50:32.020Z,96.00
2023-04-25T05:53:06.922Z,96.00
2023-04-25T05:55:40.268Z,95.60
2023-04-25T05:58:21.342Z,95.30
2023-04-25T06:00:48.480Z,95.30
2023-04-25T06:03:18.788Z,95.30
2023-04-25T06:05:48.119Z,95.50
2023-04-25T06:08:15.491Z,95.60
2023-04-25T06:10:42.662Z,95.70
2023-04-25T06:13:09.805Z,95.90
2023-04-25T06:15:37.849Z,95.90
2023-04-25T06:18:05.343Z,95.90
2023-04-25T06:20:32.496Z,96.10
2023-04-25T06:23:01.215Z,96.00
2023-04-25T06:25:38.544Z,96.20
2023-04-25T06:28:05.959Z,96.20
2023-04-25T06:30:33.701Z,96.00
2023-04-25T06:33:06.736Z,96.10
2023-04-25T06:35:33.979Z,96.20
2023-04-25T06:38:01.216Z,96.30
2023-04-25T06:40:28.671Z,96.10
2023-04-25T06:42:56.017Z,96.20
2023-04-25T06:45:55.267Z,96.10
2023-04-25T06:48:23.941Z,96.30
2023-04-25T06:50:51.984Z,96.20
2023-04-25T06:53:19.855Z,96.20
2023-04-25T06:55:51.174Z,95.70
2023-04-25T06:58:20.880Z,95.60
2023-04-25T07:01:14.005Z,95.30
2023-04-25T07:03:41.359Z,95.30
2023-04-25T07:06:14.497Z,95.40
2023-04-25T07:08:42.361Z,95.30
2023-04-25T07:11:09.685Z,95.10
2023-04-25T07:13:37.696Z,95.00
2023-04-25T07:16:05.999Z,95.10
2023-04-25T07:18:34.877Z,95.10
2023-04-25T07:21:02.774Z,95.10
2023-04-25T07:23:31.153Z,95.20
2023-04-25T07:26:00.686Z,95.40
2023-04-25T07:28:28.446Z,95.60
2023-04-25T07:30:55.672Z,95.60
2023-04-25T07:33:22.816Z,95.70
2023-04-25T07:35:50.315Z,95.60
2023-04-25T07:38:18.564Z,95.30
2023-04-25T07:43:17.496Z,95.40
2023-04-25T07:45:57.542Z,95.40
2023-04-25T07:48:25.154Z,95.80
2023-04-25T07:50:53.626Z,95.60
2023-04-25T07:53:20.721Z,95.40
2023-04-25T07:55:53.800Z,95.40
2023-04-25T07:58:23.228Z,95.40
2023-04-25T08:01:00.575Z,95.50
2023-04-25T08:03:48.381Z,95.60
2023-04-25T08:06:22.246Z,95.30
2023-04-25T08:09:18.599Z,95.40
2023-04-25T08:11:45.915Z,95.40
2023-04-25T08:14:15.956Z,95.30
2023-04-25T08:16:44.891Z,95.40
2023-04-25T08:19:12.495Z,95.30
2023-04-25T08:21:39.661Z,95.40
2023-04-25T08:24:11.490Z,95.30
2023-04-25T08:26:41.756Z,95.40
2023-04-25T08:29:10.866Z,95.40
2023-04-25T08:31:41.285Z,95.50
2023-04-25T08:34:09.368Z,95.60
2023-04-25T08:36:42.256Z,95.30
2023-04-25T08:39:23.858Z,96.10
2023-04-25T08:42:17.334Z,94.90
2023-04-25T08:44:47.258Z,95.10
2023-04-25T08:47:14.418Z,95.30
2023-04-25T08:49:48.012Z,94.80
2023-04-25T08:52:23.555Z,94.80
2023-04-25T08:54:52.460Z,94.70
2023-04-25T08:57:22.170Z,94.80
2023-04-25T08:59:50.989Z,94.60
2023-04-25T09:02:21.045Z,94.70
2023-04-25T09:04:51.409Z,94.60
2023-04-25T09:07:22.170Z,94.90
2023-04-25T09:09:49.393Z,95.00
2023-04-25T09:12:22.330Z,95.10
2023-04-25T09:15:07.791Z,95.10
2023-04-25T09:18:00.758Z,95.30
2023-04-25T09:23:24.967Z,95.40
2023-04-25T09:25:55.050Z,95.60
2023-04-25T09:28:28.612Z,95.70
2023-04-25T09:30:59.547Z,95.60
2023-04-25T09:33:39.417Z,95.60
2023-04-25T09:36:12.071Z,95.60
2023-04-25T09:39:02.256Z,95.60
2023-04-25T09:41:33.603Z,95.60
2023-04-25T09:44:03.577Z,95.60
2023-04-25T09:46:39.880Z,95.70
2023-04-25T09:49:16.338Z,95.70
2023-04-25T09:52:00.496Z,95.90
2023-04-25T09:54:33.600Z,95.90
2023-04-25T09:57:25.220Z,96.00
2023-04-25T09:59:56.876Z,96.00
2023-04-25T10:02:28.963Z,96.10
2023-04-25T10:05:08.042Z,95.80
2023-04-25T10:07:40.122Z,95.20
2023-04-25T10:10:14.496Z,94.90
2023-04-25T10:12:43.902Z,94.70
2023-04-25T10:15:12.103Z,94.90
2023-04-25T10:17:41.148Z,95.20
2023-04-25T10:20:12.012Z,95.40
2023-04-25T10:22:44.272Z,95.30
2023-04-25T10:25:12.320Z,95.30
2023-04-25T10:27:41.225Z,94.80
2023-04-25T10:30:16.594Z,94.30
2023-04-25T10:32:46.374Z,94.10
2023-04-25T10:35:26.730Z,94.20
2023-04-25T10:38:12.071Z,93.80
2023-04-25T10:40:39.434Z,93.60
2023-04-25T10:43:43.031Z,93.40
2023-04-25T10:46:32.682Z,93.00
2023-04-25T10:49:03.145Z,93.20
2023-04-25T10:51:53.906Z,93.10
2023-04-25T10:54:26.628Z,92.80
2023-04-25T10:56:54.344Z,92.80
2023-04-25T10:59:26.074Z,92.40
2023-04-25T11:01:55.984Z,92.30
2023-04-25T11:04:26.735Z,92.10
2023-04-25T11:07:11.792Z,91.70
2023-04-25T11:09:42.583Z,91.80
2023-04-25T11:12:12.764Z,92.00
2023-04-25T11:17:08.562Z,91.40
2023-04-25T11:19:36.036Z,91.50
2023-04-25T11:22:04.542Z,91.60
2023-04-25T11:24:35.311Z,91.50
2023-04-25T11:27:04.919Z,91.00
2023-04-25T11:29:33.948Z,90.90
2023-04-25T11:32:02.364Z,90.40
2023-04-25T11:34:34.388Z,89.60
2023-04-25T11:37:03.930Z,89.50
2023-04-25T11:39:31.702Z,89.50
2023-04-25T11:41:59.963Z,88.70
2023-04-25T11:44:29.687Z,89.40
2023-04-25T11:46:56.797Z,90.00
2023-04-25T11:49:25.863Z,90.00
2023-04-25T11:51:53.070Z,90.10
2023-04-25T11:54:20.822Z,89.80
2023-04-25T11:56:47.970Z,89.80
2023-04-25T11:59:15.152Z,90.00
2023-04-25T12:01:49.942Z,89.70
2023-04-25T12:04:26.266Z,89.80
2023-04-25T12:06:56.308Z,88.80
2023-04-25T12:09:33.066Z,89.30
2023-04-25T12:12:04.790Z,89.50
2023-04-25T12:14:34.727Z,88.90
2023-04-25T12:17:05.119Z,89.20
2023-04-25T12:19:38.034Z,88.80
2023-04-25T12:22:22.333Z,86.60
2023-04-25T12:24:49.956Z,85.10
2023-04-25T12:27:19.736Z,84.80
2023-04-25T12:29:56.830Z,84.70
2023-04-25T12:32:24.954Z,84.10
2023-04-25T12:34:52.080Z,84.80
2023-04-25T12:37:19.260Z,85.20
2023-04-25T12:39:46.340Z,84.70
2023-04-25T12:42:13.834Z,83.40
2023-04-25T12:44:41.927Z,83.10
2023-04-25T12:47:09.557Z,81.90
2023-04-25T12:49:36.766Z,81.60
2023-04-25T12:52:03.981Z,80.70
2023-04-25T12:54:31.380Z,81.40
2023-04-25T12:56:59.300Z,80.50
2023-04-25T12:59:26.447Z,77.90
2023-04-25T13:01:54.173Z,77.30
2023-04-25T13:04:22.347Z,76.90
2023-04-25T13:06:49.686Z,77.20
2023-04-25T13:09:16.766Z,76.80
2023-04-25T13:11:43.983Z,76.60
2023-04-25T13:14:11.305Z,76.30
2023-04-25T13:16:38.651Z,76.80
2023-04-25T13:19:06.598Z,77.20
2023-04-25T13:21:33.719Z,76.40
2023-04-25T13:24:01.043Z,76.90
2023-04-25T13:26:28.138Z,77.20
2023-04-25T13:28:55.258Z,76.60
2023-04-25T13:31:22.457Z,77.60
2023-04-25T13:33:49.994Z,77.20
2023-04-25T13:36:17.563Z,78.00
2023-04-25T13:38:46.165Z,76.20
2023-04-25T13:41:18.667Z,76.50
2023-04-25T13:43:48.779Z,76.10
2023-04-25T13:46:35.513Z,74.70
2023-04-25T13:49:12.944Z,74.00
2023-04-25T13:51:41.622Z,72.20
2023-04-25T13:54:08.890Z,71.40
2023-04-25T13:56:36.297Z,71.00
2023-04-25T13:59:03.851Z,69.10
2023-04-25T14:01:32.293Z,70.20
2023-04-25T14:03:59.710Z,70.20
2023-04-25T14:06:26.954Z,69.90
2023-04-25T14:08:55.504Z,70.20
2023-04-25T14:11:22.594Z,68.70
2023-04-25T14:13:52.528Z,68.50
2023-04-25T14:16:20.747Z,69.70
2023-04-25T14:18:47.892Z,68.90
2023-04-25T14:21:15.037Z,69.00
2023-04-25T14:23:42.525Z,67.90
2023-04-25T14:26:13.321Z,66.30
2023-04-25T14:28:40.510Z,66.00
2023-04-25T14:31:07.890Z,66.60
2023-04-25T14:33:35.287Z,66.00
2023-04-25T14:36:02.420Z,66.20
2023-04-25T14:38:29.742Z,65.90
2023-04-25T14:40:56.843Z,67.40
2023-04-25T14:43:24.005Z,67.30
2023-04-25T14:45:51.109Z,67.20
2023-04-25T14:48:20.667Z,67.10
2023-04-25T14:50:48.059Z,66.60
2023-04-25T14:53:15.297Z,64.50
2023-04-25T14:55:43.078Z,65.20
2023-04-25T14:58:10.361Z,65.90
2023-04-25T15:00:38.338Z,65.30
2023-04-25T15:03:05.831Z,65.40
2023-04-25T15:05:33.056Z,64.60
2023-04-25T15:08:00.160Z,65.60
2023-04-25T15:10:27.463Z,66.20
2023-04-25T15:12:54.744Z,65.60
2023-04-25T15:15:26.420Z,66.50
2023-04-25T15:17:58.835Z,66.40
2023-04-25T15:20:27.849Z,65.20
2023-04-25T15:22:55.570Z,65.20
2023-04-25T15:25:22.865Z,65.70
2023-04-25T15:27:50.407Z,65.80
2023-04-25T15:30:18.690Z,66.30
2023-04-25T15:32:48.166Z,66.00
2023-04-25T15:35:16.387Z,66.90
2023-04-25T15:37:44.115Z,66.90
2023-04-25T15:40:20.323Z,65.80
2023-04-25T15:42:53.078Z,65.30
2023-04-25T15:45:25.763Z,65.20
2023-04-25T15:47:55.707Z,64.20
2023-04-25T15:50:23.696Z,65.60
2023-04-25T15:52:51.749Z,65.40
2023-04-25T15:55:21.837Z,65.20
2023-04-25T15:57:51.534Z,65.90
2023-04-25T16:00:22.060Z,65.60
2023-04-25T16:02:49.503Z,64.80
2023-04-25T16:05:18.244Z,65.10
2023-04-25T16:07:46.978Z,66.00
2023-04-25T16:10:17.188Z,65.20
2023-04-25T16:12:44.366Z,65.40
2023-04-25T16:15:11.590Z,65.60
2023-04-25T16:17:38.715Z,66.20
2023-04-25T16:20:10.483Z,65.30
2023-04-25T16:22:43.262Z,65.50
2023-04-25T16:25:12.599Z,65.60
2023-04-25T16:27:39.912Z,65.50
2023-04-25T16:30:11.768Z,65.20
2023-04-25T16:32:40.031Z,66.80
2023-04-25T16:35:08.358Z,67.60
2023-04-25T16:37:36.216Z,66.20
2023-04-25T16:40:03.777Z,65.60
2023-04-25T16:42:30.883Z,66.00
2023-04-25T16:44:58.212Z,65.00
2023-04-25T16:47:26.070Z,65.00
2023-04-25T16:49:53.439Z,65.60
2023-04-25T16:52:23.659Z,65.80
2023-04-25T16:54:51.010Z,65.20
2023-04-25T16:57:18.180Z,65.50
2023-04-25T16:59:45.999Z,65.00
2023-04-25T17:02:13.787Z,65.20
2023-04-25T17:04:41.738Z,63.90
2023-04-25T17:07:09.673Z,63.90
2023-04-25T17:09:36.837Z,63.80
2023-04-25T17:12:04.809Z,64.30
2023-04-25T17:14:33.339Z,63.10
2023-04-25T17:17:00.980Z,62.10
2023-04-25T17:19:28.634Z,62.50
2023-04-25T17:21:56.121Z,62.70
2023-04-25T17:24:23.395Z,62.80
2023-04-25T17:26:50.755Z,62.90
2023-04-25T17:29:17.914Z,62.80
2023-04-25T17:31:45.365Z,63.30
2023-04-25T17:34:17.960Z,63.50
2023-04-25T17:36:46.252Z,63.20
2023-04-25T17:39:17.359Z,63.30
2023-04-25T17:41:45.630Z,63.60
2023-04-25T17:44:12.814Z,64.00
2023-04-25T17:46:40.005Z,65.20
2023-04-25T17:49:07.241Z,64.50
2023-04-25T17:51:34.466Z,65.00
2023-04-25T17:54:01.684Z,65.00
2023-04-25T17:56:29.328Z,64.50
2023-04-25T17:58:56.519Z,65.10
2023-04-25T18:01:23.744Z,65.00
2023-04-25T18:03:52.332Z,65.40
2023-04-25T18:06:19.722Z,65.10
2023-04-25T18:08:47.427Z,64.90
2023-04-25T18:11:14.679Z,65.20
2023-04-25T18:13:41.930Z,65.20
2023-04-25T18:16:10.033Z,65.80
2023-04-25T18:18:38.015Z,65.90
2023-04-25T18:21:07.964Z,66.10
2023-04-25T18:23:36.729Z,66.60
2023-04-25T18:26:05.875Z,66.70
2023-04-25T18:28:34.381Z,66.40
2023-04-25T18:31:01.820Z,66.80
2023-04-25T18:33:28.911Z,67.10
2023-04-25T18:35:59.592Z,67.20
2023-04-25T18:41:08.341Z,67.70
2023-04-25T18:43:46.151Z,68.10
2023-04-25T18:46:13.397Z,68.50
2023-04-25T18:48:40.571Z,68.20
2023-04-25T18:51:07.764Z,68.10
2023-04-25T18:53:35.033Z,68.40
2023-04-25T18:56:02.193Z,68.50
2023-04-25T18:58:29.497Z,68.70
2023-04-25T19:00:56.773Z,69.00
2023-04-25T19:03:24.296Z,69.50
2023-04-25T19:05:51.809Z,69.60
2023-04-25T19:08:19.102Z,69.50
2023-04-25T19:10:47.241Z,69.70
2023-04-25T19:13:14.464Z,70.00
2023-04-25T19:15:41.554Z,70.40
2023-04-25T19:18:09.064Z,70.90
2023-04-25T19:20:36.424Z,71.40
2023-04-25T19:23:05.580Z,71.60
2023-04-25T19:25:34.075Z,72.40
2023-04-25T19:28:01.764Z,72.60
2023-04-25T19:30:29.857Z,73.00
2023-04-25T19:32:57.417Z,73.40
2023-04-25T19:35:25.351Z,73.30
2023-04-25T19:37:52.429Z,73.90
2023-04-25T19:40:21.907Z,74.40
2023-04-25T19:42:49.005Z,74.80
2023-04-25T19:45:16.123Z,75.30
2023-04-25T19:47:43.874Z,75.20
2023-04-25T19:50:11.969Z,75.00
2023-04-25T19:52:39.998Z,75.60
2023-04-25T19:55:08.332Z,75.60
2023-04-25T19:57:37.904Z,76.00
2023-04-25T20:00:14.664Z,76.20
2023-04-25T20:02:45.344Z,76.30
2023-04-25T20:05:18.470Z,76.20
2023-04-25T20:07:45.572Z,76.40
2023-04-25T20:10:14.277Z,76.80
2023-04-25T20:12:41.556Z,76.10
2023-04-25T20:15:12.598Z,75.90
2023-04-25T20:17:41.823Z,76.30
2023-04-25T20:20:11.395Z,76.30
2023-04-25T20:22:40.447Z,76.70
2023-04-25T20:25:10.526Z,76.80
2023-04-25T20:27:40.833Z,77.10
2023-04-25T20:30:10.242Z,78.30
2023-04-25T20:32:38.051Z,78.30
2023-04-25T20:35:09.103Z,78.50
2023-04-25T20:37:36.731Z,78.80
2023-04-25T20:40:09.024Z,79.20
2023-04-25T20:42:36.545Z,78.90
2023-04-25T20:45:13.624Z,78.70
2023-04-25T20:47:42.776Z,78.60
2023-04-25T20:50:11.246Z,78.70
2023-04-25T20:52:38.767Z,79.70
2023-04-25T20:55:07.303Z,80.50
2023-04-25T20:57:34.399Z,80.10
2023-04-25T21:00:01.591Z,79.90
2023-04-25T21:02:30.068Z,80.30
2023-04-25T21:04:57.300Z,80.50
2023-04-25T21:07:24.429Z,80.70
2023-04-25T21:09:51.834Z,81.30
2023-04-25T21:12:19.042Z,80.90
2023-04-25T21:14:46.147Z,81.20
2023-04-25T21:17:13.349Z,81.40
2023-04-25T21:19:41.210Z,81.20
2023-04-25T21:22:08.361Z,81.30
2023-04-25T21:24:35.515Z,81.50
2023-04-25T21:27:02.562Z,81.80
2023-04-25T21:29:29.701Z,81.10
2023-04-25T21:31:57.034Z,80.90
2023-04-25T21:34:24.205Z,81.10
2023-04-25T21:36:51.264Z,80.90
2023-04-25T21:39:19.124Z,81.20
2023-04-25T21:41:46.429Z,81.30
2023-04-25T21:44:14.564Z,82.40
2023-04-25T21:46:41.955Z,83.00
2023-04-25T21:49:09.109Z,82.80
2023-04-25T21:51:36.252Z,83.80
2023-04-25T21:54:05.568Z,83.00
2023-04-25T21:56:33.241Z,83.30
2023-04-25T21:59:00.482Z,83.30
2023-04-25T22:01:28.603Z,83.30
2023-04-25T22:03:55.930Z,83.80
2023-04-25T22:06:23.237Z,84.00
2023-04-25T22:08:50.577Z,83.70
2023-04-25T22:11:17.908Z,84.10
2023-04-25T22:13:45.572Z,84.20
2023-04-25T22:16:12.790Z,83.60
2023-04-25T22:18:40.712Z,83.60
2023-04-25T22:21:08.774Z,82.90
2023-04-25T22:23:37.237Z,84.70
2023-04-25T22:26:05.292Z,83.70
2023-04-25T22:28:33.259Z,84.00
2023-04-25T22:31:00.393Z,83.40
2023-04-25T22:33:27.527Z,83.40
2023-04-25T22:35:54.662Z,84.20
2023-04-25T22:38:22.085Z,83.80
2023-04-25T22:40:49.316Z,84.20
2023-04-25T22:43:16.566Z,84.50
2023-04-25T22:45:43.708Z,84.10
2023-04-25T22:48:11.041Z,83.70
2023-04-25T22:50:40.592Z,83.90
2023-04-25T22:53:10.150Z,84.30
2023-04-25T22:55:37.281Z,85.00
2023-04-25T22:58:05.100Z,85.40
2023-04-25T23:00:34.358Z,85.80
2023-04-25T23:03:04.913Z,85.70
2023-04-25T23:05:32.931Z,86.00
2023-04-25T23:08:00.208Z,86.20
2023-04-25T23:10:28.703Z,85.60
2023-04-25T23:12:58.099Z,85.50
2023-04-25T23:15:27.720Z,86.10
2023-04-25T23:17:54.941Z,86.50
2023-04-25T23:20:22.182Z,86.00
2023-04-25T23:22:49.789Z,85.50
2023-04-25T23:25:18.280Z,85.30
2023-04-25T23:27:45.438Z,85.70
2023-04-25T23:30:13.230Z,86.40
2023-04-25T23:32:41.215Z,86.80
2023-04-25T23:35:10.183Z,86.70
2023-04-25T23:37:38.775Z,86.90
2023-04-25T23:40:10.541Z,87.40
2023-04-25T23:42:39.012Z,88.70
2023-04-25T23:45:08.377Z,88.60
2023-04-25T23:47:36.272Z,88.90
2023-04-25T23:50:04.309Z,88.70
2023-04-25T23:52:31.681Z,89.10
2023-04-25T23:54:58.780Z,90.00
2023-04-25T23:57:25.997Z,88.90
2023-04-25T23:59:53.301Z,88.30
